Gossett, Illinois
Current Conditions -  °F | °C
As of 1:35 AM on Sunday 23 Nov 2014 (Local Time) from KCUL Reporting Station
Clear Clear  
Wind Chill:   Ceiling: Unl
Heat Index:   Visibility: 10mi
Dew Point:   Wind: 8mph
Humidity: 78%   Direction: 130°SE
Pressure: 29.93"   Gusts: NA
Location:  37.9739°N, 88.3193°W
Report Text: KCUL 230735Z AUTO 13007KT 10SM CLR 08/04 A2993 RMK AO2 T00760039
Loading
Personal Weather Stations






























Interactive Weather Map New forecast layout! Learn more

10-Day Weather Forecast

Advertisements
Track Severe Weather on mobile